Time;durP1;ratioP1;P1;durP2;ratioP2;P2;SDS_P1;SDS_P2;PMS_P1;PMS_P2;Temp;Humidity;BMP_temperature;BMP_pressure;BME280_temperature;BME280_humidity;BME280_pressure;Samples;Min_cycle;Max_cycle;Signal;HPM_P1;HPM_P2
2024/04/02 00:01:40;;;;;;;4.95;0.90;;;;;;;25.44;30.44;98832.66;4969405;28;96923;-50
2024/04/02 00:04:14;;;;;;;5.70;1.00;;;;;;;25.45;30.81;98885.75;4969110;28;99843;-51
2024/04/02 00:06:41;;;;;;;3.42;1.00;;;;;;;25.44;30.87;98905.81;4969143;28;99626;-50
2024/04/02 00:09:08;;;;;;;3.38;1.00;;;;;;;25.43;30.30;98898.75;4969312;28;96726;-51
2024/04/02 00:11:35;;;;;;;2.22;0.93;;;;;;;25.43;30.36;98929.38;4970370;28;97692;-51
2024/04/02 00:14:01;;;;;;;4.97;1.05;;;;;;;25.43;30.85;98931.25;4985229;28;100072;-51
2024/04/02 00:16:29;;;;;;;3.33;0.90;;;;;;;25.42;30.45;98956.72;4995918;28;99626;-51
2024/04/02 00:18:55;;;;;;;4.45;1.00;;;;;;;25.37;30.98;98962.13;5009592;28;96860;-51
2024/04/02 00:21:24;;;;;;;4.35;1.17;;;;;;;25.37;30.88;98965.63;5009027;28;96811;-50
2024/04/02 00:23:50;;;;;;;5.20;1.10;;;;;;;25.36;31.13;98991.09;5008640;28;100116;-50
2024/04/02 00:26:17;;;;;;;7.30;1.27;;;;;;;25.37;31.13;98956.72;5008430;28;100012;-51
2024/04/02 00:28:44;;;;;;;6.55;1.10;;;;;;;25.36;31.01;99003.84;5011706;28;96870;-51
2024/04/02 00:31:15;;;;;;;7.65;1.20;;;;;;;25.34;31.19;99014.94;5012408;28;96791;-50
2024/04/02 00:33:41;;;;;;;5.65;1.30;;;;;;;25.36;31.25;99028.22;5012382;28;99673;-50
2024/04/02 00:36:09;;;;;;;3.63;0.90;;;;;;;25.34;31.26;99016.84;5012027;28;98668;-50
2024/04/02 00:38:37;;;;;;;7.03;1.00;;;;;;;25.35;31.21;99010.31;4997128;28;96989;-50
2024/04/02 00:41:04;;;;;;;5.30;1.10;;;;;;;25.34;31.24;98990.56;4992954;28;96825;-51
2024/04/02 00:43:31;;;;;;;4.78;1.00;;;;;;;25.35;31.12;98994.91;4992306;28;100747;-51
2024/04/02 00:45:58;;;;;;;3.65;0.88;;;;;;;25.34;31.38;98997.88;4992247;28;99602;-50
2024/04/02 00:48:24;;;;;;;3.30;0.90;;;;;;;25.34;31.41;98989.75;4992612;28;97385;-51
2024/04/02 00:50:52;;;;;;;4.88;1.20;;;;;;;25.34;31.41;98971.59;4983995;28;97522;-50
2024/04/02 00:53:20;;;;;;;2.67;1.00;;;;;;;25.34;31.37;98981.63;4971504;28;99825;-51
2024/04/02 00:55:49;;;;;;;3.10;0.70;;;;;;;25.34;31.48;99000.56;4984589;28;100092;-51
2024/04/02 00:58:15;;;;;;;3.55;0.90;;;;;;;25.35;31.37;99027.41;4992002;28;96708;-50
2024/04/02 01:00:43;;;;;;;2.90;0.85;;;;;;;25.35;31.55;99043.66;4992144;28;96963;-50
2024/04/02 01:03:09;;;;;;;3.50;0.70;;;;;;;25.35;31.58;99059.91;4991725;28;98023;-52
2024/04/02 01:05:37;;;;;;;4.60;0.80;;;;;;;25.34;31.59;99046.63;4991919;28;99680;-51
2024/04/02 01:08:04;;;;;;;2.97;0.80;;;;;;;25.34;31.61;99038.50;4985688;28;97712;-50
2024/04/02 01:10:32;;;;;;;4.65;0.80;;;;;;;25.33;31.77;99034.16;4995832;28;96886;-50
2024/04/02 01:13:00;;;;;;;2.67;0.82;;;;;;;25.32;31.79;99043.34;5011002;28;100350;-50
2024/04/02 01:15:27;;;;;;;3.38;0.85;;;;;;;25.32;31.90;99051.47;5011950;28;99501;-51
2024/04/02 01:17:54;;;;;;;3.95;0.85;;;;;;;25.31;31.79;99047.16;5011384;28;96696;-50
2024/04/02 01:20:21;;;;;;;2.90;0.65;;;;;;;25.30;32.04;99029.25;5010530;28;99005;-50
2024/04/02 01:22:49;;;;;;;3.33;0.80;;;;;;;25.29;31.94;99012.19;5010434;28;100127;-50
2024/04/02 01:25:21;;;;;;;1.65;0.55;;;;;;;25.28;32.01;99010.56;4995497;28;99528;-50
2024/04/02 01:27:47;;;;;;;3.20;0.70;;;;;;;25.28;32.02;99010.56;4982090;28;96880;-51
2024/04/02 01:30:15;;;;;;;5.53;0.88;;;;;;;25.27;32.08;98997.28;4990868;28;96758;-50
2024/04/02 01:32:41;;;;;;;3.13;0.70;;;;;;;25.27;31.97;99016.25;4980936;28;99775;-51
2024/04/02 01:35:08;;;;;;;4.30;0.90;;;;;;;25.26;32.16;99028.16;4970771;28;99703;-51
2024/04/02 01:37:34;;;;;;;2.63;0.70;;;;;;;25.27;31.96;99005.41;4970958;28;97137;-50
2024/04/02 01:40:03;;;;;;;2.70;0.60;;;;;;;25.26;32.16;99014.63;4970240;28;96872;-51
2024/04/02 01:42:31;;;;;;;3.72;0.80;;;;;;;25.28;31.97;99017.88;4969129;28;100092;-50
2024/04/02 01:44:59;;;;;;;3.28;0.80;;;;;;;25.27;32.05;99048.75;4970164;28;99647;-51
2024/04/02 01:47:27;;;;;;;2.75;0.80;;;;;;;25.27;32.36;99056.88;4970620;28;96878;-51
2024/04/02 01:49:54;;;;;;;2.25;0.65;;;;;;;25.26;32.16;99034.38;4970543;28;96861;-51
2024/04/02 01:52:20;;;;;;;2.53;0.70;;;;;;;25.27;32.32;99051.44;4970106;28;100206;-51
2024/04/02 01:54:48;;;;;;;8.02;0.75;;;;;;;25.26;32.18;99049.84;4975556;28;99696;-51
2024/04/02 01:57:14;;;;;;;2.78;0.60;;;;;;;25.27;32.20;99078.53;4989880;28;96649;-50
2024/04/02 01:59:43;;;;;;;2.65;0.55;;;;;;;25.26;32.33;99039.81;4985048;28;96819;-50
2024/04/02 02:02:09;;;;;;;2.97;0.80;;;;;;;25.25;32.38;99027.34;4969730;28;99700;-50
2024/04/02 02:04:36;;;;;;;2.05;0.68;;;;;;;25.25;32.44;99067.97;4985839;28;98682;-50
2024/04/02 02:07:03;;;;;;;2.92;0.63;;;;;;;25.25;32.39;99076.09;5009515;28;96752;-51
2024/04/02 02:09:30;;;;;;;3.10;0.63;;;;;;;25.25;32.42;99067.16;5009985;28;96871;-50
2024/04/02 02:11:57;;;;;;;1.10;0.50;;;;;;;25.25;32.54;99069.88;5009330;28;100264;-50
2024/04/02 02:14:24;;;;;;;2.03;0.50;;;;;;;25.23;32.63;99083.66;5002406;28;99663;-51
2024/04/02 02:16:52;;;;;;;3.40;0.70;;;;;;;25.22;32.69;99082.84;5010143;28;96831;-50
2024/04/02 02:19:19;;;;;;;2.15;0.60;;;;;;;25.21;32.75;99083.91;4951147;28;1400035;-50
2024/04/02 02:21:46;;;;;;;2.47;0.70;;;;;;;25.22;32.82;99082.84;4989112;28;100171;-51
2024/04/02 02:24:13;;;;;;;2.58;0.80;;;;;;;25.21;32.96;99077.69;4990943;28;99794;-50
2024/04/02 02:26:40;;;;;;;2.58;0.60;;;;;;;25.21;32.90;99080.41;4990590;28;96720;-50
2024/04/02 02:29:07;;;;;;;2.15;0.73;;;;;;;25.20;32.96;99078.78;4987916;28;99103;-50
2024/04/02 02:31:35;;;;;;;2.28;0.50;;;;;;;25.19;33.00;99082.53;4970435;28;99839;-50
2024/04/02 02:34:04;;;;;;;2.72;0.45;;;;;;;25.19;32.93;99088.81;4970734;28;99018;-50
2024/04/02 02:36:31;;;;;;;3.58;0.60;;;;;;;25.18;32.93;99095.28;4978946;28;96905;-51
2024/04/02 02:38:58;;;;;;;1.85;0.40;;;;;;;25.18;33.16;99102.59;4975480;28;97207;-50
2024/04/02 02:41:24;;;;;;;2.92;0.50;;;;;;;25.18;32.93;99103.41;4970677;28;100109;-51
2024/04/02 02:43:51;;;;;;;1.42;0.45;;;;;;;25.17;33.08;99096.38;4970264;28;100109;-51
2024/04/02 02:46:18;;;;;;;2.40;0.60;;;;;;;25.17;32.99;99101.78;4970729;28;96730;-50
2024/04/02 02:48:45;;;;;;;2.25;0.52;;;;;;;25.18;33.01;99106.09;4971376;28;96808;-50
2024/04/02 02:51:13;;;;;;;1.63;0.43;;;;;;;25.17;33.08;99107.19;4969354;28;99684;-51
2024/04/02 02:53:40;;;;;;;2.65;0.52;;;;;;;25.16;33.03;99129.91;4973502;28;99690;-50
2024/04/02 02:56:07;;;;;;;2.15;0.40;;;;;;;25.16;32.96;99127.22;4981421;28;96669;-50
2024/04/02 02:58:34;;;;;;;1.85;0.43;;;;;;;25.17;33.20;99155.94;4990165;28;96836;-51
2024/04/02 03:01:04;;;;;;;1.92;0.68;;;;;;;25.16;33.13;99157.00;5009266;28;100892;-50
2024/04/02 03:03:31;;;;;;;3.35;0.60;;;;;;;25.16;33.99;99154.28;5010204;28;99589;-50
2024/04/02 03:05:58;;;;;;;1.90;0.52;;;;;;;25.15;34.27;99163.50;5010570;28;97058;-50
2024/04/02 03:08:27;;;;;;;2.35;0.50;;;;;;;25.14;34.59;99161.84;5010676;28;96852;-51
2024/04/02 03:10:54;;;;;;;4.43;0.50;;;;;;;25.15;34.17;99166.22;5010587;28;99709;-51
2024/04/02 03:13:21;;;;;;;3.10;0.57;;;;;;;25.14;34.14;99167.25;4998273;28;99444;-51
2024/04/02 03:15:48;;;;;;;2.95;0.73;;;;;;;25.13;34.40;99176.44;4981379;28;97446;-51
2024/04/02 03:18:15;;;;;;;2.72;0.60;;;;;;;25.13;34.10;99173.72;4976683;28;96801;-50
2024/04/02 03:20:41;;;;;;;4.22;0.60;;;;;;;25.14;35.28;99161.84;4969231;28;100317;-51
2024/04/02 03:23:10;;;;;;;4.38;0.70;;;;;;;25.15;35.94;99174.34;4973766;28;99958;-50
2024/04/02 03:25:38;;;;;;;11.50;0.90;;;;;;;25.17;36.36;99193.03;4970383;28;96771;-50
2024/04/02 03:28:05;;;;;;;5.38;1.00;;;;;;;25.18;37.25;99191.97;4969934;28;96805;-51
2024/04/02 03:30:32;;;;;;;7.07;0.95;;;;;;;25.18;36.58;99197.38;4970042;28;99770;-50
2024/04/02 03:33:00;;;;;;;4.10;0.75;;;;;;;25.16;36.88;99194.09;4974173;28;99715;-51
2024/04/02 03:35:27;;;;;;;4.05;0.70;;;;;;;25.15;36.46;99196.00;4982150;28;98747;-50
2024/04/02 03:37:54;;;;;;;3.10;0.70;;;;;;;25.16;36.14;99203.03;4987913;28;96840;-50
2024/04/02 03:40:21;;;;;;;4.03;0.45;;;;;;;25.15;36.03;99212.25;4986949;28;100191;-50
2024/04/02 03:42:50;;;;;;;1.95;0.50;;;;;;;25.15;35.74;99214.94;4989448;28;99700;-50
2024/04/02 03:45:18;;;;;;;5.38;0.80;;;;;;;25.16;36.25;99213.06;4990525;28;97966;-50
2024/04/02 03:47:44;;;;;;;3.92;1.00;;;;;;;25.14;35.86;99221.44;4989999;28;96879;-49
2024/04/02 03:50:11;;;;;;;6.10;1.00;;;;;;;25.14;36.99;99226.84;4989331;28;99851;-51
2024/04/02 03:52:37;;;;;;;6.45;0.85;;;;;;;25.14;36.31;99237.66;4989012;28;99199;-50
2024/04/02 03:55:05;;;;;;;4.78;0.70;;;;;;;25.14;36.45;99220.59;4990106;28;97494;-50
2024/04/02 03:57:32;;;;;;;4.68;0.80;;;;;;;25.14;36.71;99229.53;4989668;28;96840;-50
2024/04/02 04:00:00;;;;;;;3.40;0.70;;;;;;;25.13;36.46;99236.03;4989093;28;99684;-51
2024/04/02 04:02:27;;;;;;;6.10;0.75;;;;;;;25.13;35.98;99238.72;4989365;28;99580;-50
2024/04/02 04:04:54;;;;;;;4.40;0.70;;;;;;;25.12;35.97;99239.81;4989874;28;96764;-50
2024/04/02 04:07:20;;;;;;;3.47;0.68;;;;;;;25.13;36.05;99262.28;4983587;28;96911;-50
2024/04/02 04:09:48;;;;;;;2.88;0.80;;;;;;;25.11;36.05;99254.44;4969307;28;99692;-50
2024/04/02 04:12:30;;;;;;;2.33;0.65;;;;;;;25.11;35.85;99264.44;4969385;28;100042;-50
2024/04/02 04:14:56;;;;;;;2.75;0.60;;;;;;;25.12;35.56;99260.66;4969808;28;96770;-50
2024/04/02 04:17:25;;;;;;;3.55;0.57;;;;;;;25.10;35.88;99262.81;4973684;28;96831;-50
2024/04/02 04:19:52;;;;;;;3.92;0.65;;;;;;;25.09;35.80;99255.75;4970899;28;102043;-50
2024/04/02 04:22:19;;;;;;;2.10;0.57;;;;;;;25.08;35.73;99267.66;4969145;28;99650;-51
2024/04/02 04:24:45;;;;;;;2.40;0.70;;;;;;;25.09;35.67;99272.81;4969882;28;97111;-50
2024/04/02 04:27:13;;;;;;;3.05;0.60;;;;;;;25.08;35.49;99282.00;4969548;28;96820;-50
2024/04/02 04:29:39;;;;;;;1.45;0.45;;;;;;;25.07;35.60;99277.66;4968988;28;99742;-50
2024/04/02 04:32:07;;;;;;;4.95;0.60;;;;;;;25.06;35.62;99269.78;4969476;28;99676;-50
2024/04/02 04:34:34;;;;;;;4.32;0.60;;;;;;;25.05;35.65;99277.09;4969056;28;97315;-50
2024/04/02 04:37:02;;;;;;;4.05;0.52;;;;;;;25.05;35.35;99300.66;4969312;28;96794;-51
2024/04/02 04:39:28;;;;;;;4.38;0.82;;;;;;;25.05;35.44;99297.94;4968968;28;99752;-51
2024/04/02 04:41:55;;;;;;;3.08;0.63;;;;;;;25.05;35.41;99306.06;4969020;28;100188;-50
2024/04/02 04:44:22;;;;;;;1.40;0.40;;;;;;;25.04;35.32;99310.69;4969070;28;96739;-50
2024/04/02 04:46:49;;;;;;;2.83;0.50;;;;;;;25.05;35.53;99319.63;4969562;28;96786;-50
2024/04/02 04:49:15;;;;;;;1.30;0.50;;;;;;;25.05;35.40;99320.44;4968994;28;100172;-50
2024/04/02 04:51:44;;;;;;;2.75;0.50;;;;;;;25.07;35.35;99329.13;4968901;28;99610;-50
2024/04/02 04:54:10;;;;;;;2.25;0.45;;;;;;;25.06;35.38;99313.97;4969220;28;97248;-50
2024/04/02 04:56:38;;;;;;;1.75;0.50;;;;;;;25.06;35.26;99327.50;4969126;28;96691;-50
2024/04/02 04:59:04;;;;;;;1.90;0.50;;;;;;;25.05;35.25;99331.25;4968353;28;99763;-50
2024/04/02 05:01:31;;;;;;;1.92;0.47;;;;;;;25.05;35.31;99336.66;4968648;28;99585;-50
2024/04/02 05:03:57;;;;;;;4.50;0.50;;;;;;;25.07;35.33;99344.56;4969005;28;96702;-50
2024/04/02 05:06:25;;;;;;;1.35;0.40;;;;;;;25.06;35.27;99342.91;4969029;28;96776;-51
2024/04/02 05:08:52;;;;;;;1.63;0.50;;;;;;;25.06;35.25;99346.44;4968339;28;100152;-51
2024/04/02 05:11:21;;;;;;;0.80;0.30;;;;;;;25.06;35.18;99348.31;4975833;28;100042;-50
2024/04/02 05:13:47;;;;;;;1.55;0.47;;;;;;;25.05;35.15;99352.91;4989753;28;96780;-50
2024/04/02 05:16:15;;;;;;;1.92;0.40;;;;;;;25.04;35.38;99356.72;4992962;28;96783;-50
2024/04/02 05:18:41;;;;;;;1.50;0.43;;;;;;;25.04;35.37;99356.72;4991388;28;100151;-51
2024/04/02 05:21:08;;;;;;;1.60;0.40;;;;;;;25.04;35.23;99356.72;4991336;28;99816;-50
2024/04/02 05:23:35;;;;;;;1.40;0.55;;;;;;;25.05;35.25;99360.22;4991598;28;96788;-50
2024/04/02 05:26:05;;;;;;;1.77;0.50;;;;;;;25.04;35.38;99362.13;4991752;28;96917;-51
2024/04/02 05:28:31;;;;;;;2.58;0.40;;;;;;;25.04;35.31;99367.53;4991132;28;100116;-51
2024/04/02 05:30:59;;;;;;;1.90;0.40;;;;;;;25.04;35.06;99366.72;4991361;28;99568;-50
2024/04/02 05:33:25;;;;;;;1.52;0.28;;;;;;;25.04;35.12;99362.13;4991820;28;96946;-50
2024/04/02 05:35:52;;;;;;;1.67;0.28;;;;;;;25.04;35.23;99374.84;4992059;28;97363;-50
2024/04/02 05:38:19;;;;;;;1.20;0.20;;;;;;;25.04;35.08;99369.44;4991673;28;100256;-50
2024/04/02 05:40:46;;;;;;;2.50;0.30;;;;;;;25.05;35.09;99369.16;4992111;28;99971;-49
2024/04/02 05:43:14;;;;;;;1.17;0.30;;;;;;;25.05;35.12;99371.88;4991890;28;96771;-52
2024/04/02 05:45:41;;;;;;;2.20;0.32;;;;;;;25.05;34.98;99377.28;4991762;28;96776;-50
2024/04/02 05:48:07;;;;;;;2.05;0.40;;;;;;;25.05;34.91;99380.00;4991379;28;100110;-50
2024/04/02 05:50:35;;;;;;;1.35;0.30;;;;;;;25.06;35.01;99388.94;4990936;28;99839;-50
2024/04/02 05:53:01;;;;;;;2.10;0.40;;;;;;;25.06;34.92;99369.97;4991578;28;96757;-51
2024/04/02 05:55:28;;;;;;;0.35;0.20;;;;;;;25.06;35.00;99387.06;4991410;28;96829;-50
2024/04/02 05:57:56;;;;;;;0.30;0.10;;;;;;;25.06;34.83;99380.81;4991088;28;99797;-50
2024/04/02 06:00:28;;;;;;;1.15;0.20;;;;;;;25.06;34.80;99395.19;4991343;28;100305;-51
2024/04/02 06:02:54;;;;;;;1.05;0.20;;;;;;;25.05;34.80;99390.00;4991703;28;96640;-51
2024/04/02 06:05:21;;;;;;;0.77;0.20;;;;;;;25.06;34.67;99395.19;4988788;28;96916;-51
2024/04/02 06:07:49;;;;;;;1.45;0.30;;;;;;;25.05;34.63;99400.84;4970783;28;99653;-52
2024/04/02 06:10:17;;;;;;;2.08;0.20;;;;;;;25.05;34.63;99401.66;4970950;28;99559;-50
2024/04/02 06:12:45;;;;;;;0.40;0.20;;;;;;;25.06;34.62;99397.91;4970901;28;96764;-50
2024/04/02 06:15:12;;;;;;;0.55;0.20;;;;;;;25.06;34.63;99397.91;4970911;28;96832;-50
2024/04/02 06:17:40;;;;;;;0.98;0.40;;;;;;;25.06;34.42;99406.03;4970903;28;99872;-50
2024/04/02 06:20:08;;;;;;;1.55;0.20;;;;;;;25.08;34.33;99408.47;4970756;28;99718;-50
2024/04/02 06:22:35;;;;;;;0.20;0.10;;;;;;;25.06;34.47;99419.56;4971524;28;96849;-50
2024/04/02 06:25:03;;;;;;;0.93;0.20;;;;;;;25.06;34.57;99424.97;4969782;28;96765;-50
2024/04/02 06:27:29;;;;;;;1.50;0.30;;;;;;;25.06;34.49;99419.56;4970077;28;99706;-50
2024/04/02 06:29:56;;;;;;;0.80;0.30;;;;;;;25.08;34.16;99444.47;4971168;28;99498;-50
2024/04/02 06:32:23;;;;;;;0.35;0.10;;;;;;;25.10;34.44;99445.03;4971251;28;97400;-50
2024/04/02 06:34:51;;;;;;;0.90;0.22;;;;;;;25.10;34.27;99436.91;4970735;28;96749;-51
2024/04/02 06:37:18;;;;;;;0.70;0.20;;;;;;;25.13;34.14;99447.25;4970035;28;99881;-51
2024/04/02 06:39:45;;;;;;;0.35;0.10;;;;;;;25.12;34.08;99445.63;4970823;28;99697;-50
2024/04/02 06:42:11;;;;;;;0.55;0.15;;;;;;;25.12;34.07;99445.63;4970626;28;96768;-50
2024/04/02 06:44:39;;;;;;;0.50;0.13;;;;;;;25.14;33.89;99462.44;4970252;28;96859;-50
2024/04/02 06:47:05;;;;;;;0.65;0.10;;;;;;;25.13;33.83;99463.50;4975510;28;100057;-50
2024/04/02 06:49:32;;;;;;;1.10;0.30;;;;;;;25.15;33.84;99477.63;4970214;28;97364;-50
2024/04/02 06:52:00;;;;;;;0.20;0.00;;;;;;;25.14;33.63;99481.41;4970287;28;96871;-50
2024/04/02 06:54:28;;;;;;;0.25;0.15;;;;;;;25.16;33.74;99492.81;4973668;28;96946;-50
2024/04/02 06:56:55;;;;;;;0.93;0.17;;;;;;;25.17;33.75;99508.00;4978734;28;99662;-50
2024/04/02 06:59:23;;;;;;;0.57;0.20;;;;;;;25.17;33.84;99516.13;4980736;28;99410;-51
2024/04/02 07:01:49;;;;;;;0.40;0.20;;;;;;;25.18;33.73;99509.63;4989743;28;96773;-50
2024/04/02 07:04:16;;;;;;;0.47;0.10;;;;;;;25.19;33.69;99519.41;4990473;28;97420;-50
2024/04/02 07:06:42;;;;;;;0.10;0.10;;;;;;;25.20;33.70;99523.75;4990708;28;101380;-50
2024/04/02 07:09:11;;;;;;;0.08;0.05;;;;;;;25.20;33.72;99523.75;4990206;28;99861;-53
2024/04/02 07:11:38;;;;;;;0.10;0.10;;;;;;;25.20;33.58;99523.75;4990440;28;96727;-50
2024/04/02 07:14:05;;;;;;;0.35;0.13;;;;;;;25.22;33.51;99540.59;4989854;28;96803;-50
2024/04/02 07:16:31;;;;;;;0.10;0.00;;;;;;;25.22;33.55;99545.19;4985900;28;100161;-50
2024/04/02 07:18:59;;;;;;;0.10;0.10;;;;;;;25.23;33.50;99561.16;4970239;28;99799;-50
2024/04/02 07:21:25;;;;;;;0.38;0.10;;;;;;;25.23;33.42;99563.88;4969769;28;96825;-51
2024/04/02 07:23:52;;;;;;;0.20;0.10;;;;;;;25.23;33.41;99566.59;4970184;28;96845;-50
2024/04/02 07:26:20;;;;;;;0.10;0.08;;;;;;;25.25;33.18;99573.66;4969531;28;99844;-50
2024/04/02 07:28:47;;;;;;;0.30;0.17;;;;;;;25.27;33.34;99579.63;4969716;28;98583;-50
2024/04/02 07:31:14;;;;;;;0.70;0.10;;;;;;;25.28;33.29;99578.56;4970164;28;96722;-50
2024/04/02 07:33:41;;;;;;;0.35;0.10;;;;;;;25.27;33.36;99585.88;4969922;28;96847;-51
2024/04/02 07:36:07;;;;;;;0.28;0.10;;;;;;;25.27;33.03;99602.13;4969304;28;100005;-51
2024/04/02 07:38:35;;;;;;;0.40;0.13;;;;;;;25.29;32.93;99591.84;4969647;28;99468;-50
2024/04/02 07:41:01;;;;;;;0.38;0.10;;;;;;;25.29;33.04;99583.72;4969994;28;97275;-50
2024/04/02 07:43:30;;;;;;;0.10;0.03;;;;;;;25.30;33.01;99587.25;4969777;28;96922;-53
2024/04/02 07:45:56;;;;;;;0.43;0.10;;;;;;;25.32;32.95;99601.38;4969811;28;99860;-51
2024/04/02 07:48:23;;;;;;;0.00;0.00;;;;;;;25.32;32.84;99598.66;4973863;28;100969;-51
2024/04/02 07:50:50;;;;;;;0.20;0.10;;;;;;;25.33;32.88;99605.75;4968924;28;96782;-50
2024/04/02 07:53:17;;;;;;;0.38;0.10;;;;;;;25.34;32.80;99620.91;4970048;28;97325;-50
2024/04/02 07:55:44;;;;;;;0.63;0.20;;;;;;;25.33;32.72;99611.97;4969618;28;99988;-51
2024/04/02 07:58:12;;;;;;;0.28;0.13;;;;;;;25.34;32.72;99620.91;4969129;28;99959;-51
2024/04/02 08:00:41;;;;;;;0.30;0.03;;;;;;;25.36;32.57;99618.78;4969898;28;96728;-51
2024/04/02 08:03:08;;;;;;;0.15;0.10;;;;;;;25.36;32.53;99637.75;4970973;28;98224;-51
2024/04/02 08:05:35;;;;;;;0.15;0.10;;;;;;;25.35;32.47;99627.97;4973660;28;100066;-50
2024/04/02 08:08:04;;;;;;;0.10;0.00;;;;;;;25.36;32.54;99626.91;4969567;28;99967;-51
2024/04/02 08:10:30;;;;;;;0.30;0.17;;;;;;;25.37;32.51;99633.97;4969442;28;96820;-50
2024/04/02 08:12:58;;;;;;;0.22;0.08;;;;;;;25.34;32.53;99634.47;4969386;28;96782;-50
2024/04/02 08:15:24;;;;;;;0.00;0.00;;;;;;;25.32;32.53;99636.59;4968775;28;99760;-51
2024/04/02 08:17:54;;;;;;;0.22;0.05;;;;;;;25.35;32.50;99645.06;4969119;28;99919;-51
2024/04/02 08:20:20;;;;;;;0.47;0.03;;;;;;;25.37;32.31;99658.34;4969067;28;96782;-51
2024/04/02 08:22:48;;;;;;;0.17;0.10;;;;;;;25.37;32.32;99650.22;4988497;28;99477;-51
2024/04/02 08:25:14;;;;;;;0.35;0.00;;;;;;;25.36;32.38;99664.84;4989316;28;99817;-51
2024/04/02 08:27:42;;;;;;;0.20;0.10;;;;;;;25.36;32.33;99649.41;4988200;28;99785;-50
2024/04/02 08:30:10;;;;;;;0.20;0.10;;;;;;;25.37;32.47;99663.75;4989075;28;96760;-50
2024/04/02 08:32:37;;;;;;;0.55;0.10;;;;;;;25.39;32.20;99659.72;4989823;28;96730;-50
2024/04/02 08:35:06;;;;;;;0.10;0.10;;;;;;;25.40;32.36;99647.84;4988730;28;99754;-50
2024/04/02 08:37:33;;;;;;;0.00;0.00;;;;;;;25.41;32.28;99659.50;4968793;28;99722;-51
2024/04/02 08:39:59;;;;;;;0.20;0.03;;;;;;;25.42;32.16;99655.72;4968471;28;96810;-50
2024/04/02 08:42:27;;;;;;;0.00;0.00;;;;;;;25.41;32.29;99665.72;4969149;28;96832;-50
2024/04/02 08:44:53;;;;;;;0.20;0.10;;;;;;;25.42;32.22;99667.38;4968747;28;99780;-50
2024/04/02 08:47:21;;;;;;;0.00;0.00;;;;;;;25.43;32.20;99662.75;4968959;28;99681;-50
2024/04/02 08:49:47;;;;;;;0.35;0.17;;;;;;;25.43;32.14;99676.31;4972283;28;97472;-49
2024/04/02 08:52:16;;;;;;;0.28;0.00;;;;;;;25.45;32.14;99682.31;4974330;28;96840;-51
2024/04/02 08:54:42;;;;;;;0.40;0.10;;;;;;;25.48;32.15;99676.38;4973493;28;99833;-50
2024/04/02 08:57:10;;;;;;;0.05;0.00;;;;;;;25.50;31.91;99674.25;4973093;28;99622;-50
2024/04/02 08:59:36;;;;;;;0.20;0.10;;;;;;;25.53;31.89;99668.31;4972596;28;96854;-50
2024/04/02 09:02:03;;;;;;;0.00;0.00;;;;;;;25.53;32.00;99662.91;4972868;28;96904;-51
2024/04/02 09:04:32;;;;;;;0.10;0.00;;;;;;;25.56;32.04;99673.28;4971696;28;99669;-50
2024/04/02 09:06:59;;;;;;;0.90;0.10;;;;;;;25.57;31.90;99663.25;4976385;28;99932;-50
2024/04/02 09:09:27;;;;;;;0.10;0.00;;;;;;;25.57;32.00;99664.06;4972513;28;96680;-51
2024/04/02 09:11:55;;;;;;;0.03;0.00;;;;;;;25.58;31.94;99676.53;4972636;28;96811;-50
2024/04/02 09:14:22;;;;;;;0.05;0.00;;;;;;;25.59;31.89;99667.34;4971477;28;99696;-51
2024/04/02 09:16:50;;;;;;;0.00;0.00;;;;;;;25.61;31.80;99675.22;4971761;28;99925;-51
2024/04/02 09:19:18;;;;;;;0.00;0.00;;;;;;;25.61;31.79;99680.63;4972411;28;96861;-51
2024/04/02 09:21:46;;;;;;;0.10;0.00;;;;;;;25.60;31.73;99679.81;4972406;28;96856;-51
2024/04/02 09:24:12;;;;;;;0.10;0.05;;;;;;;25.60;31.69;99679.00;4971708;28;100109;-51
2024/04/02 09:26:41;;;;;;;0.00;0.00;;;;;;;25.59;31.71;99694.47;4972034;28;99952;-50
2024/04/02 09:29:08;;;;;;;0.70;0.10;;;;;;;25.60;31.74;99696.09;4971117;28;96820;-50
2024/04/02 09:31:35;;;;;;;0.00;0.00;;;;;;;25.63;31.70;99695.59;4972436;28;96820;-50
2024/04/02 09:34:08;;;;;;;0.00;0.00;;;;;;;25.62;31.59;99693.94;4971745;28;98759;-50
2024/04/02 09:36:42;;;;;;;0.00;0.00;;;;;;;25.63;31.50;99695.59;4971986;28;100143;-51
2024/04/02 09:39:12;;;;;;;0.20;0.10;;;;;;;25.63;31.46;99689.34;4971571;28;96865;-51
2024/04/02 09:41:41;;;;;;;0.55;0.10;;;;;;;25.65;31.48;99696.16;4972171;28;96717;-50
2024/04/02 09:44:10;;;;;;;0.10;0.00;;;;;;;25.66;31.65;99692.38;4971326;28;100076;-50
2024/04/02 09:46:39;;;;;;;0.05;0.03;;;;;;;25.66;31.42;99700.50;4972085;28;99550;-50
2024/04/02 09:49:06;;;;;;;0.00;0.00;;;;;;;25.66;31.29;99699.69;4972180;28;96755;-51
2024/04/02 09:51:33;;;;;;;0.20;0.00;;;;;;;25.67;31.31;99699.44;4971534;28;97107;-50
2024/04/02 09:54:00;;;;;;;0.28;0.08;;;;;;;25.65;31.41;99703.47;4970396;28;99675;-50
2024/04/02 09:56:27;;;;;;;0.00;0.00;;;;;;;25.64;31.42;99699.09;4988218;28;99647;-50
2024/04/02 09:58:55;;;;;;;0.38;0.13;;;;;;;25.63;31.46;99701.00;4975568;28;96775;-50
2024/04/02 10:01:27;;;;;;;0.03;0.00;;;;;;;25.62;31.36;99702.09;4972327;28;96710;-51
2024/04/02 10:03:56;;;;;;;0.05;0.00;;;;;;;25.64;31.28;99699.09;4971280;28;99730;-50
2024/04/02 10:06:24;;;;;;;0.10;0.08;;;;;;;25.62;31.24;99702.09;4970959;28;99618;-50
2024/04/02 10:08:57;;;;;;;0.00;0.00;;;;;;;25.61;31.18;99705.84;4971530;28;96761;-50
2024/04/02 10:11:37;;;;;;;0.05;0.00;;;;;;;25.62;31.35;99702.09;4971741;28;96835;-51
2024/04/02 10:14:06;;;;;;;0.03;0.00;;;;;;;25.64;31.20;99720.78;4974832;28;99834;-51
2024/04/02 10:16:34;;;;;;;0.10;0.00;;;;;;;25.63;31.33;99711.84;4970649;28;99620;-50
2024/04/02 10:19:01;;;;;;;0.00;0.00;;;;;;;25.63;31.09;99711.84;4970394;28;96707;-50
2024/04/02 10:21:30;;;;;;;0.00;0.00;;;;;;;25.62;31.05;99709.41;4970977;28;96880;-50
2024/04/02 10:23:56;;;;;;;0.00;0.00;;;;;;;25.60;31.18;99706.94;4971184;28;100110;-50
2024/04/02 10:26:23;;;;;;;0.35;0.03;;;;;;;25.60;31.12;99706.13;4970658;28;99595;-50
2024/04/02 10:28:53;;;;;;;0.00;0.00;;;;;;;25.59;31.16;99716.13;4970590;28;96796;-50
2024/04/02 10:31:22;;;;;;;0.00;0.00;;;;;;;25.58;30.95;99719.91;4971009;28;96718;-51
2024/04/02 10:33:50;;;;;;;0.10;0.00;;;;;;;25.56;31.23;99729.34;4970436;28;100147;-51
2024/04/02 10:36:17;;;;;;;0.17;0.00;;;;;;;25.54;31.24;99740.44;4970840;28;99526;-50
2024/04/02 10:38:44;;;;;;;0.00;0.00;;;;;;;25.53;31.22;99727.94;4970792;28;96783;-50
2024/04/02 10:41:12;;;;;;;0.03;0.00;;;;;;;25.52;31.17;99731.75;4971018;28;96744;-50
2024/04/02 10:43:38;;;;;;;0.10;0.00;;;;;;;25.51;31.15;99723.84;4969693;28;99698;-51
2024/04/02 10:46:05;;;;;;;0.00;0.00;;;;;;;25.50;31.22;99725.75;4970215;28;99905;-50
2024/04/02 10:48:33;;;;;;;0.00;0.00;;;;;;;25.49;31.10;99734.94;4970551;28;97155;-51
2024/04/02 10:51:01;;;;;;;0.00;0.00;;;;;;;25.48;31.01;99730.56;4970239;28;96831;-51
2024/04/02 10:53:27;;;;;;;0.08;0.00;;;;;;;25.49;31.13;99731.44;4970573;28;99712;-51
2024/04/02 10:55:54;;;;;;;0.13;0.00;;;;;;;25.49;31.10;99715.16;4973885;28;99612;-51
2024/04/02 10:58:20;;;;;;;0.05;0.00;;;;;;;25.50;31.00;99727.63;4970350;28;96688;-50
2024/04/02 11:00:48;;;;;;;0.00;0.00;;;;;;;25.48;31.03;99719.75;4971206;28;96793;-50
2024/04/02 11:03:14;;;;;;;0.60;0.03;;;;;;;25.47;30.99;99728.94;4970276;28;100095;-50
2024/04/02 11:05:43;;;;;;;0.00;0.00;;;;;;;25.47;31.07;99731.66;4970106;28;99459;-50
2024/04/02 11:08:09;;;;;;;0.15;0.00;;;;;;;25.45;31.01;99728.38;4970174;28;96655;-50
2024/04/02 11:10:36;;;;;;;0.55;0.00;;;;;;;25.44;30.94;99724.03;4969822;28;96855;-51
2024/04/02 11:13:03;;;;;;;0.20;0.10;;;;;;;25.44;30.98;99721.31;4969878;28;99926;-51
2024/04/02 11:15:30;;;;;;;0.10;0.03;;;;;;;25.44;31.00;99707.78;4969839;28;99574;-50
2024/04/02 11:17:57;;;;;;;0.20;0.08;;;;;;;25.46;30.91;99702.94;4970704;28;96767;-51
2024/04/02 11:20:24;;;;;;;0.00;0.00;;;;;;;25.47;30.92;99701.84;4970689;28;97903;-50
2024/04/02 11:25:38;;;;;;;0.05;0.03;;;;;;;25.45;31.06;99706.69;4970422;28;99707;-51
2024/04/02 11:28:17;;;;;;;0.03;0.00;;;;;;;25.44;30.96;99718.59;4970325;28;97151;-50
2024/04/02 11:30:45;;;;;;;0.20;0.00;;;;;;;25.44;30.97;99721.31;4970457;28;96953;-50
2024/04/02 11:33:11;;;;;;;0.10;0.00;;;;;;;25.43;30.94;99728.63;4969170;28;100179;-50
2024/04/02 11:35:38;;;;;;;0.15;0.00;;;;;;;25.43;31.02;99719.66;4969821;28;100042;-50